Time;durP1;ratioP1;P1;durP2;ratioP2;P2;SDS_P1;SDS_P2;PMS_P1;PMS_P2;Temp;Humidity;BMP_temperature;BMP_pressure;BME280_temperature;BME280_humidity;BME280_pressure;Samples;Min_cycle;Max_cycle;Signal;HPM_P1;HPM_P2
2022/07/25 00:00:39;;;;;;;59.38;53.83;;;;;;;23.23;100.00;100977.00;5008101;28;20130;-82
2022/07/25 00:03:08;;;;;;;64.60;59.10;;;;;;;23.25;100.00;100966.69;5014783;28;20062;-83
2022/07/25 00:05:35;;;;;;;71.20;65.47;;;;;;;23.19;100.00;100964.31;5005886;28;20077;-84
2022/07/25 00:08:02;;;;;;;62.55;57.28;;;;;;;22.89;100.00;100958.03;5012659;28;20042;-83
2022/07/25 00:10:29;;;;;;;58.75;53.80;;;;;;;23.08;100.00;100953.56;5022695;28;20061;-82
2022/07/25 00:12:56;;;;;;;75.18;69.15;;;;;;;23.08;100.00;100953.56;5027451;28;20041;-82
2022/07/25 00:15:23;;;;;;;65.13;59.72;;;;;;;23.01;100.00;100953.09;5001551;28;20399;-81
2022/07/25 00:17:52;;;;;;;76.13;70.18;;;;;;;23.06;100.00;100952.25;5010349;28;20054;-82
2022/07/25 00:20:20;;;;;;;59.90;54.60;;;;;;;22.93;100.00;100953.66;5007942;28;20053;-84
2022/07/25 00:22:55;;;;;;;67.15;61.65;;;;;;;23.00;100.00;100942.56;5013723;28;20046;-84
2022/07/25 00:25:23;;;;;;;88.97;82.85;;;;;;;23.05;100.00;100946.00;5014394;28;20050;-81
2022/07/25 00:27:52;;;;;;;72.97;67.40;;;;;;;22.98;100.00;100944.72;5018249;28;20041;-85
2022/07/25 00:30:20;;;;;;;78.07;72.53;;;;;;;22.90;100.00;100945.28;5025078;28;20477;-85
2022/07/25 00:32:47;;;;;;;69.00;63.22;;;;;;;22.96;100.00;100936.88;5024037;28;20485;-83
2022/07/25 00:35:16;;;;;;;68.32;62.72;;;;;;;22.95;100.00;100931.75;5007313;28;20042;-84
2022/07/25 00:37:44;;;;;;;73.28;67.28;;;;;;;22.95;100.00;100927.13;5008593;28;20050;-83
2022/07/25 00:40:12;;;;;;;60.83;55.78;;;;;;;22.89;100.00;100914.69;5014589;28;20064;-82
2022/07/25 00:42:40;;;;;;;66.43;61.42;;;;;;;22.82;100.00;100897.97;5025729;28;20053;-83
2022/07/25 00:45:09;;;;;;;72.35;66.53;;;;;;;22.75;100.00;100900.19;5016744;28;20057;-86
2022/07/25 00:47:36;;;;;;;71.97;66.13;;;;;;;22.72;100.00;100896.13;5011613;28;20054;-83
2022/07/25 00:50:04;;;;;;;73.72;67.65;;;;;;;22.74;100.00;100910.22;5021604;28;20449;-83
2022/07/25 00:52:35;;;;;;;65.93;60.47;;;;;;;22.73;100.00;100908.59;5030513;28;20077;-83
2022/07/25 00:55:02;;;;;;;69.88;63.95;;;;;;;22.84;100.00;100909.31;5034171;28;20057;-85
2022/07/25 00:57:29;;;;;;;58.45;53.38;;;;;;;22.84;100.00;100912.03;5029063;28;20049;-83
2022/07/25 00:59:58;;;;;;;59.58;54.58;;;;;;;22.83;100.00;100903.09;5016030;28;20056;-84
2022/07/25 01:02:25;;;;;;;56.22;51.42;;;;;;;22.93;100.00;100906.81;5030348;28;20057;-82
2022/07/25 01:04:53;;;;;;;58.38;53.58;;;;;;;22.72;100.00;100915.09;5020412;28;20056;-84
2022/07/25 01:07:20;;;;;;;54.67;49.42;;;;;;;22.92;100.00;100932.28;5018018;28;20466;-82
2022/07/25 01:09:51;;;;;;;51.85;47.58;;;;;;;22.52;100.00;100945.03;5021659;28;20049;-83
2022/07/25 01:12:19;;;;;;;63.47;58.33;;;;;;;22.32;100.00;100941.34;5026073;28;20064;-82
2022/07/25 01:14:46;;;;;;;59.40;54.50;;;;;;;22.22;100.00;100959.53;5010863;28;20050;-85
2022/07/25 01:17:13;;;;;;;50.95;46.42;;;;;;;21.91;100.00;100960.44;5017305;28;20114;-82
2022/07/25 01:19:40;;;;;;;60.78;55.65;;;;;;;22.47;100.00;100959.38;5018809;28;20057;-83
2022/07/25 01:22:16;;;;;;;55.50;50.70;;;;;;;22.29;100.00;100971.66;5013023;28;20057;-84
2022/07/25 01:24:43;;;;;;;56.72;52.05;;;;;;;22.51;100.00;100962.34;4994116;28;20062;-84
2022/07/25 01:27:16;;;;;;;55.47;50.60;;;;;;;22.56;100.00;100954.19;5012083;28;20057;-84
2022/07/25 01:29:44;;;;;;;65.35;59.85;;;;;;;22.62;100.00;100951.16;4995678;28;20062;-83
2022/07/25 01:32:12;;;;;;;55.20;50.33;;;;;;;22.28;100.00;100944.88;5014020;28;20387;-85
2022/07/25 01:34:43;;;;;;;67.45;61.75;;;;;;;22.25;100.00;100956.28;5031013;28;20055;-84
2022/07/25 01:37:16;;;;;;;64.32;58.70;;;;;;;22.48;100.00;100947.50;5020137;28;20116;-82
2022/07/25 01:39:49;;;;;;;57.95;52.92;;;;;;;22.29;100.00;100955.41;5016766;28;20135;-84
2022/07/25 01:42:18;;;;;;;61.13;56.17;;;;;;;21.94;100.00;100959.88;5023928;28;20056;-83
2022/07/25 01:44:46;;;;;;;65.13;59.92;;;;;;;21.41;100.00;100964.06;5015434;28;20045;-84
2022/07/25 01:47:16;;;;;;;66.78;61.38;;;;;;;21.93;100.00;100965.53;5013232;28;20061;-85
2022/07/25 01:49:50;;;;;;;72.53;67.13;;;;;;;22.05;100.00;100963.34;5005286;28;20145;-82
2022/07/25 01:52:18;;;;;;;68.05;62.45;;;;;;;22.37;100.00;100967.56;5015875;28;20046;-84
2022/07/25 01:54:46;;;;;;;64.65;59.15;;;;;;;22.32;100.00;100960.28;5026304;28;20068;-83
2022/07/25 01:57:20;;;;;;;57.83;52.30;;;;;;;22.21;100.00;100956.03;5012487;28;20045;-83
2022/07/25 01:59:47;;;;;;;53.17;48.75;;;;;;;22.15;100.00;100954.41;5013608;28;20057;-83
2022/07/25 02:02:14;;;;;;;71.13;65.38;;;;;;;22.34;100.00;100958.09;5134145;23;20064;-82
2022/07/25 02:04:41;;;;;;;59.55;54.20;;;;;;;22.17;100.00;100954.94;5036495;28;20061;-83
2022/07/25 02:07:09;;;;;;;66.68;61.30;;;;;;;22.09;100.00;100961.72;5036501;28;20053;-84
2022/07/25 02:09:38;;;;;;;73.47;67.75;;;;;;;22.25;100.00;100959.78;5036869;28;20433;-85
2022/07/25 02:12:07;;;;;;;65.60;60.45;;;;;;;22.41;100.00;100961.31;5036622;28;20077;-83
2022/07/25 02:14:40;;;;;;;67.25;61.67;;;;;;;22.27;100.00;100952.19;5028193;28;20045;-85
2022/07/25 02:17:07;;;;;;;63.75;58.63;;;;;;;22.43;100.00;100946.72;5028594;28;20405;-83
2022/07/25 02:19:34;;;;;;;70.68;64.97;;;;;;;22.30;100.00;100951.66;5036707;28;20054;-85
2022/07/25 02:22:01;;;;;;;67.43;62.08;;;;;;;22.31;100.00;100952.44;5028229;28;20501;-83
2022/07/25 02:24:29;;;;;;;76.57;70.65;;;;;;;22.48;100.00;100954.78;5034881;28;20481;-82
2022/07/25 02:26:58;;;;;;;73.95;67.85;;;;;;;22.64;100.00;100953.63;5035063;28;20057;-84
2022/07/25 02:29:25;;;;;;;66.43;60.80;;;;;;;22.62;100.00;100948.47;5036719;28;20053;-82
2022/07/25 02:31:53;;;;;;;63.28;57.85;;;;;;;22.67;100.00;100953.03;5036154;28;20053;-82
2022/07/25 02:34:25;;;;;;;75.20;69.72;;;;;;;22.40;100.00;100948.06;5034546;28;20103;-83
2022/07/25 02:36:54;;;;;;;56.42;51.97;;;;;;;21.64;100.00;100949.16;5035369;28;20041;-84
2022/07/25 02:39:21;;;;;;;51.83;47.33;;;;;;;21.30;100.00;100949.69;5036033;28;20045;-82
2022/07/25 02:41:48;;;;;;;54.45;50.00;;;;;;;21.40;100.00;100955.16;5035759;28;20452;-83
2022/07/25 02:44:16;;;;;;;59.30;54.40;;;;;;;21.45;100.00;100962.41;5035190;28;20046;-81
2022/07/25 02:46:44;;;;;;;54.65;49.65;;;;;;;21.57;100.00;100954.03;5035410;28;20049;-82
2022/07/25 02:49:12;;;;;;;52.13;47.30;;;;;;;21.86;100.00;100960.44;5035996;28;20048;-81
2022/07/25 02:51:39;;;;;;;55.17;50.72;;;;;;;21.92;100.00;100961.25;5039817;28;20053;-83
2022/07/25 02:54:06;;;;;;;60.00;55.13;;;;;;;21.96;100.00;100956.88;5035721;28;20049;-82
2022/07/25 02:56:33;;;;;;;54.33;50.05;;;;;;;21.63;100.00;100959.13;5032558;28;20053;-85
2022/07/25 02:59:00;;;;;;;56.15;51.88;;;;;;;21.99;100.00;100955.53;5035995;28;20090;-83
2022/07/25 03:01:29;;;;;;;53.28;49.28;;;;;;;21.71;100.00;100958.59;5029450;28;20064;-83
2022/07/25 03:03:56;;;;;;;54.40;50.00;;;;;;;21.57;100.00;100957.53;5034188;28;20041;-82
2022/07/25 03:06:24;;;;;;;54.40;50.08;;;;;;;21.88;100.00;100957.47;5035066;28;20041;-81
2022/07/25 03:08:52;;;;;;;48.58;44.47;;;;;;;22.04;100.00;100958.22;4945172;28;20050;-83
2022/07/25 03:11:19;;;;;;;49.17;44.88;;;;;;;22.09;100.00;100944.69;4986541;28;20050;-83
2022/07/25 03:13:45;;;;;;;51.00;47.15;;;;;;;22.03;100.00;100956.59;4992699;28;20050;-82
2022/07/25 03:16:12;;;;;;;49.70;45.75;;;;;;;21.41;100.00;100964.06;4995454;28;20479;-82
2022/07/25 03:18:41;;;;;;;53.83;49.88;;;;;;;21.58;100.00;100950.25;4992720;28;20399;-83
2022/07/25 03:21:09;;;;;;;53.53;49.22;;;;;;;21.96;100.00;100965.00;4994489;28;20081;-81
2022/07/25 03:23:36;;;;;;;51.75;48.00;;;;;;;21.64;100.00;100963.47;4995792;28;20050;-82
2022/07/25 03:26:04;;;;;;;47.72;43.58;;;;;;;21.52;100.00;100965.66;4994303;28;20065;-81
2022/07/25 03:28:30;;;;;;;51.45;47.45;;;;;;;21.65;100.00;100967.78;4995042;28;20112;-83
2022/07/25 03:30:58;;;;;;;56.60;52.40;;;;;;;21.50;100.00;100962.41;4994460;28;20046;-83
2022/07/25 03:33:25;;;;;;;58.35;53.75;;;;;;;22.21;100.00;100968.72;4934857;28;20062;-83
2022/07/25 03:35:55;;;;;;;57.15;52.75;;;;;;;21.89;100.00;100961.78;4990291;28;20050;-84
2022/07/25 03:38:24;;;;;;;59.22;54.53;;;;;;;22.04;100.00;100979.84;4995661;28;20100;-82
2022/07/25 03:40:58;;;;;;;50.83;46.67;;;;;;;22.29;100.00;100992.50;4995118;28;20446;-82
2022/07/25 03:43:26;;;;;;;48.97;45.00;;;;;;;21.92;100.00;100990.97;4993110;28;20046;-82
2022/07/25 03:45:53;;;;;;;49.55;45.72;;;;;;;21.92;100.00;100990.97;4994993;28;20113;-81
2022/07/25 03:48:20;;;;;;;53.28;49.03;;;;;;;22.28;100.00;100985.47;4994883;28;20046;-81
2022/07/25 03:50:49;;;;;;;52.75;48.47;;;;;;;22.47;100.00;100988.34;4994256;28;20131;-83
2022/07/25 03:53:18;;;;;;;50.40;46.33;;;;;;;22.36;100.00;100982.16;4992590;28;20466;-81
2022/07/25 03:55:45;;;;;;;49.05;45.20;;;;;;;22.42;100.00;100981.06;4994922;28;20061;-83
2022/07/25 03:58:12;;;;;;;52.53;48.45;;;;;;;22.38;100.00;100988.91;4994595;28;20046;-81
2022/07/25 04:00:39;;;;;;;52.50;48.40;;;;;;;22.50;100.00;100979.66;4989300;28;20054;-81
2022/07/25 04:03:06;;;;;;;51.20;47.20;;;;;;;22.62;100.00;100972.03;4991267;28;20470;-83
2022/07/25 04:05:34;;;;;;;54.80;50.30;;;;;;;22.73;100.00;100979.00;4995010;28;20064;-82
2022/07/25 04:08:03;;;;;;;55.47;51.08;;;;;;;22.68;100.00;100980.91;4994450;28;20132;-83
2022/07/25 04:10:33;;;;;;;53.10;48.45;;;;;;;22.66;100.00;100975.78;4993554;28;20058;-80
2022/07/25 04:13:00;;;;;;;53.05;48.55;;;;;;;22.55;100.00;100979.66;4992757;28;20124;-82
2022/07/25 04:15:28;;;;;;;47.97;44.00;;;;;;;22.69;100.00;100979.81;4994485;28;20108;-81
2022/07/25 04:17:55;;;;;;;50.72;46.25;;;;;;;22.79;100.00;100979.78;4994599;28;20046;-82
2022/07/25 04:20:22;;;;;;;58.17;53.58;;;;;;;22.71;100.00;100986.59;4994756;28;20069;-80
2022/07/25 04:22:49;;;;;;;54.80;50.30;;;;;;;22.76;100.00;100983.84;4994576;28;20050;-82
2022/07/25 04:25:16;;;;;;;53.05;48.70;;;;;;;22.11;100.00;100988.47;4993738;28;20120;-80
2022/07/25 04:27:45;;;;;;;55.63;51.22;;;;;;;22.07;100.00;100998.22;4993968;28;20050;-82
2022/07/25 04:30:14;;;;;;;60.92;56.38;;;;;;;22.55;100.00;101002.09;4992439;28;20054;-81
2022/07/25 04:32:42;;;;;;;57.33;52.80;;;;;;;22.95;100.00;100986.72;4990211;28;20054;-83
2022/07/25 04:35:09;;;;;;;60.72;55.88;;;;;;;23.02;100.00;100992.63;4993667;28;20050;-81
2022/07/25 04:37:37;;;;;;;57.45;53.17;;;;;;;22.94;100.00;101001.34;4994087;28;20525;-83
2022/07/25 04:40:05;;;;;;;55.50;51.10;;;;;;;23.08;100.00;100996.09;4994523;28;20050;-84
2022/07/25 04:42:32;;;;;;;54.83;50.33;;;;;;;23.26;100.00;100991.88;4993811;28;20062;-81
2022/07/25 04:45:03;;;;;;;52.55;47.85;;;;;;;23.27;100.00;100988.91;4992959;28;20046;-81
2022/07/25 04:47:31;;;;;;;55.05;50.50;;;;;;;23.19;100.00;100994.13;4994188;28;20497;-81
2022/07/25 04:49:59;;;;;;;52.78;48.22;;;;;;;23.28;100.00;100989.72;4993577;28;20054;-81
2022/07/25 04:52:27;;;;;;;53.55;49.25;;;;;;;23.43;100.00;100992.28;4993196;28;20054;-81
2022/07/25 04:54:55;;;;;;;51.03;46.83;;;;;;;23.42;100.00;100989.84;4988761;28;20057;-81
2022/07/25 04:57:24;;;;;;;51.10;47.00;;;;;;;23.53;100.00;100988.66;4992639;28;20042;-86
2022/07/25 04:59:51;;;;;;;48.20;44.30;;;;;;;23.45;100.00;100983.84;4993888;28;20054;-81
2022/07/25 05:02:20;;;;;;;48.03;44.17;;;;;;;23.82;100.00;100987.88;4993419;28;20479;-83
2022/07/25 05:04:46;;;;;;;51.80;47.85;;;;;;;23.89;100.00;100985.63;4994339;28;20427;-81
2022/07/25 05:07:13;;;;;;;47.28;43.47;;;;;;;23.79;100.00;101000.09;4993341;28;20058;-83
2022/07/25 05:09:40;;;;;;;45.85;42.17;;;;;;;24.07;100.00;100998.41;4993774;28;20042;-83
2022/07/25 05:12:08;;;;;;;47.42;43.63;;;;;;;24.13;100.00;100991.84;4993789;28;20058;-83
2022/07/25 05:14:38;;;;;;;46.55;42.90;;;;;;;24.18;100.00;101007.25;4993119;28;20050;-83
2022/07/25 05:17:05;;;;;;;44.00;40.53;;;;;;;24.40;100.00;101010.22;4994073;28;20113;-81
2022/07/25 05:19:33;;;;;;;44.08;40.72;;;;;;;24.85;100.00;101007.19;4992076;28;20050;-83
2022/07/25 05:22:01;;;;;;;40.35;37.25;;;;;;;25.03;100.00;101008.28;4993321;28;20047;-82
2022/07/25 05:24:27;;;;;;;38.70;35.70;;;;;;;25.01;100.00;101008.56;4990593;28;20046;-81
2022/07/25 05:26:55;;;;;;;39.22;36.22;;;;;;;25.20;100.00;101014.00;4987799;28;20046;-81
2022/07/25 05:29:22;;;;;;;36.72;33.75;;;;;;;25.19;100.00;101014.28;4992882;28;20055;-83
2022/07/25 05:31:49;;;;;;;32.80;30.33;;;;;;;24.58;100.00;101024.94;4993008;28;20042;-80
2022/07/25 05:34:20;;;;;;;36.10;33.20;;;;;;;24.71;100.00;101026.13;4992891;28;20557;-80
2022/07/25 05:36:50;;;;;;;37.28;34.78;;;;;;;24.55;100.00;101024.72;4996582;28;20050;-83
2022/07/25 05:39:17;;;;;;;34.67;32.08;;;;;;;24.55;100.00;101028.25;4996356;28;20061;-81
2022/07/25 05:41:44;;;;;;;36.20;33.38;;;;;;;24.94;100.00;101034.50;4996617;28;20065;-82
2022/07/25 05:44:13;;;;;;;34.53;32.08;;;;;;;24.95;100.00;101017.88;4996251;28;20070;-82
2022/07/25 05:46:40;;;;;;;36.40;33.90;;;;;;;25.07;100.00;101020.97;4992421;28;20157;-82
2022/07/25 05:49:07;;;;;;;35.13;32.75;;;;;;;25.28;100.00;101017.94;4997377;28;20057;-81
2022/07/25 05:51:35;;;;;;;35.22;32.85;;;;;;;25.33;100.00;100998.84;4996464;28;20050;-80
2022/07/25 05:54:03;;;;;;;35.70;33.30;;;;;;;25.61;100.00;101007.84;4993307;28;20043;-82
2022/07/25 05:56:30;;;;;;;30.90;28.80;;;;;;;25.27;100.00;101002.75;4997132;28;20137;-82
2022/07/25 05:58:58;;;;;;;31.20;28.80;;;;;;;25.26;100.00;101012.78;4967342;28;20121;-82
2022/07/25 06:01:25;;;;;;;32.65;30.38;;;;;;;25.28;100.00;101016.03;4996947;28;20108;-82
2022/07/25 06:03:52;;;;;;;35.22;32.72;;;;;;;25.43;100.00;101014.16;4997020;28;20046;-82
2022/07/25 06:06:23;;;;;;;29.23;27.15;;;;;;;25.40;100.00;101012.84;4997105;28;20054;-80
2022/07/25 06:08:50;;;;;;;31.02;28.88;;;;;;;25.27;100.00;101014.44;4997396;28;20108;-82
2022/07/25 06:11:25;;;;;;;33.08;30.70;;;;;;;25.12;100.00;101014.66;4996924;28;20058;-81
2022/07/25 06:13:53;;;;;;;31.02;28.83;;;;;;;25.38;100.00;101011.53;4990462;28;20494;-83
2022/07/25 06:16:20;;;;;;;29.77;27.58;;;;;;;25.75;100.00;101013.28;4992918;28;20046;-82
2022/07/25 06:18:47;;;;;;;31.48;29.33;;;;;;;25.64;100.00;101011.91;4996636;28;20046;-82
2022/07/25 06:21:14;;;;;;;31.05;28.75;;;;;;;25.74;100.00;101017.13;4996576;28;20047;-82
2022/07/25 06:23:41;;;;;;;28.65;26.55;;;;;;;26.61;100.00;101016.22;4998161;28;20391;-81
2022/07/25 06:26:08;;;;;;;30.92;28.73;;;;;;;26.40;100.00;101013.13;4996785;28;20407;-81
2022/07/25 06:28:37;;;;;;;30.27;28.08;;;;;;;26.42;100.00;101015.56;4995356;28;20050;-82
2022/07/25 06:31:06;;;;;;;29.27;27.08;;;;;;;27.13;100.00;101007.66;4994242;28;20414;-81
2022/07/25 06:33:33;;;;;;;28.40;26.48;;;;;;;26.82;100.00;101018.50;4996628;28;20050;-81
2022/07/25 06:36:00;;;;;;;29.48;27.58;;;;;;;26.30;100.00;101016.06;4996770;28;20051;-81
2022/07/25 06:38:27;;;;;;;31.60;29.23;;;;;;;26.21;100.00;101017.91;4995232;28;20058;-81
2022/07/25 06:40:54;;;;;;;31.42;29.15;;;;;;;26.45;100.00;101025.84;4995872;28;20058;-82
2022/07/25 06:43:21;;;;;;;30.17;28.08;;;;;;;25.75;100.00;101013.28;4996197;28;20054;-82
2022/07/25 06:45:49;;;;;;;29.75;27.65;;;;;;;25.83;100.00;101020.81;4995571;28;20061;-82
2022/07/25 06:48:16;;;;;;;31.00;28.90;;;;;;;26.68;100.00;101016.59;4994587;28;20388;-83
2022/07/25 06:50:43;;;;;;;30.50;28.50;;;;;;;26.14;100.00;101028.38;4995864;28;20070;-82
2022/07/25 06:53:10;;;;;;;31.80;29.77;;;;;;;26.70;100.00;101021.75;4995456;28;20079;-82
2022/07/25 06:55:37;;;;;;;29.80;28.02;;;;;;;26.92;100.00;101027.22;4995923;28;20061;-82
2022/07/25 06:58:04;;;;;;;29.42;27.42;;;;;;;26.56;100.00;101023.72;4994465;28;20042;-82
2022/07/25 07:00:34;;;;;;;27.83;25.92;;;;;;;27.20;100.00;101029.88;4993483;28;20065;-80
2022/07/25 07:03:03;;;;;;;28.02;26.33;;;;;;;25.98;100.00;101027.88;4995628;28;20054;-82
2022/07/25 07:05:32;;;;;;;26.25;24.48;;;;;;;26.62;100.00;101027.94;4996128;28;20054;-80
2022/07/25 07:07:59;;;;;;;31.60;29.60;;;;;;;26.22;100.00;101039.34;4994626;28;20061;-82
2022/07/25 07:10:27;;;;;;;32.60;30.55;;;;;;;26.10;100.00;101041.78;4995490;28;20084;-80
2022/07/25 07:13:03;;;;;;;30.38;28.23;;;;;;;26.56;100.00;101032.69;4995767;28;20062;-81
2022/07/25 07:15:30;;;;;;;29.27;27.27;;;;;;;26.86;100.00;101033.91;4995092;28;20065;-81
2022/07/25 07:17:59;;;;;;;28.75;26.75;;;;;;;26.36;100.00;101036.63;4994158;28;20376;-82
2022/07/25 07:20:28;;;;;;;28.40;26.70;;;;;;;26.71;100.00;101035.06;4994398;28;20046;-81
2022/07/25 07:22:56;;;;;;;29.73;27.83;;;;;;;26.49;100.00;101037.75;4994535;28;20487;-81
2022/07/25 07:25:23;;;;;;;27.70;25.90;;;;;;;26.19;100.00;101039.97;4994784;28;20446;-83
2022/07/25 07:27:51;;;;;;;28.90;27.10;;;;;;;26.35;100.00;101034.19;4995888;28;20464;-81
2022/07/25 07:30:19;;;;;;;28.40;26.50;;;;;;;26.56;100.00;101029.97;4995302;28;20058;-82
2022/07/25 07:32:46;;;;;;;26.90;25.20;;;;;;;26.83;100.00;101033.72;4993576;28;20050;-82
2022/07/25 07:35:15;;;;;;;27.42;25.52;;;;;;;27.03;100.00;101040.63;4990167;28;20046;-81
2022/07/25 07:37:45;;;;;;;26.17;24.55;;;;;;;26.89;100.00;101046.91;4943326;28;20046;-83
2022/07/25 07:40:12;;;;;;;27.23;25.42;;;;;;;26.92;100.00;101045.50;4944601;28;20050;-81
2022/07/25 07:42:41;;;;;;;25.60;23.90;;;;;;;27.76;100.00;101036.63;4943668;28;20086;-81
2022/07/25 07:45:16;;;;;;;25.65;23.95;;;;;;;27.49;100.00;101043.06;4994565;28;20069;-82
2022/07/25 07:47:46;;;;;;;27.58;25.95;;;;;;;27.07;100.00;101050.59;4992954;28;20054;-81
2022/07/25 07:50:14;;;;;;;27.02;25.13;;;;;;;26.92;100.00;101049.03;4994754;28;20138;-83
2022/07/25 07:52:42;;;;;;;28.40;26.70;;;;;;;27.20;100.00;101048.16;4994676;28;20457;-80
2022/07/25 07:57:58;;;;;;;27.80;25.65;;;;;;;26.74;100.00;101047.28;4992652;28;20073;-82
2022/07/25 08:00:26;;;;;;;25.40;23.50;;;;;;;26.92;100.00;101048.22;4994381;28;20454;-82
2022/07/25 08:02:54;;;;;;;28.25;26.23;;;;;;;26.91;100.00;101043.91;4993800;28;20509;-80
2022/07/25 08:05:22;;;;;;;27.88;26.02;;;;;;;26.86;100.00;101041.28;4994325;28;20089;-82
2022/07/25 08:07:50;;;;;;;26.40;24.67;;;;;;;27.81;100.00;101031.06;4993945;28;20423;-81
2022/07/25 08:10:21;;;;;;;30.65;28.70;;;;;;;27.60;100.00;101038.16;4990325;28;20062;-81
2022/07/25 08:12:48;;;;;;;29.15;27.25;;;;;;;27.50;100.00;101031.00;4994298;28;20051;-81
2022/07/25 08:15:17;;;;;;;29.02;27.02;;;;;;;27.95;100.00;101027.41;4989864;28;20049;-81
2022/07/25 08:17:44;;;;;;;29.98;28.08;;;;;;;28.24;100.00;101024.94;4991539;28;20058;-79
2022/07/25 08:20:12;;;;;;;29.55;27.55;;;;;;;28.66;100.00;101027.28;4994045;28;20073;-79
2022/07/25 08:22:41;;;;;;;31.23;29.23;;;;;;;28.24;100.00;101024.94;4994836;28;20054;-81
2022/07/25 08:25:09;;;;;;;30.23;28.05;;;;;;;28.01;100.00;101023.41;4994908;28;20368;-81
2022/07/25 08:27:38;;;;;;;30.05;28.05;;;;;;;28.40;100.00;101025.28;4994075;28;20057;-81
2022/07/25 08:30:07;;;;;;;30.35;28.35;;;;;;;28.49;100.00;101020.66;4994512;28;20065;-81
2022/07/25 08:32:34;;;;;;;31.55;29.65;;;;;;;28.49;100.00;101020.66;4990487;28;20061;-82
2022/07/25 08:35:01;;;;;;;29.27;27.45;;;;;;;28.96;100.00;101025.53;4994831;28;20046;-79
2022/07/25 08:37:28;;;;;;;28.45;26.52;;;;;;;28.87;100.00;101028.25;4993512;28;20082;-81
2022/07/25 08:39:56;;;;;;;28.88;27.08;;;;;;;28.31;100.00;101027.19;4993553;28;20069;-79
2022/07/25 08:42:22;;;;;;;27.42;25.52;;;;;;;28.71;100.00;101025.19;4991337;28;20388;-81
2022/07/25 08:44:58;;;;;;;28.45;26.48;;;;;;;29.36;100.00;101022.59;4995582;28;20046;-81
2022/07/25 08:47:25;;;;;;;28.20;26.40;;;;;;;28.88;100.00;101024.38;4995029;28;20050;-80
2022/07/25 08:49:53;;;;;;;28.58;26.67;;;;;;;29.20;100.00;101022.31;4995547;28;20448;-80
2022/07/25 08:52:20;;;;;;;26.58;24.77;;;;;;;29.18;100.00;101025.34;4994818;28;20047;-84
2022/07/25 08:54:48;;;;;;;28.90;26.77;;;;;;;30.02;100.00;101016.75;4993900;28;20128;-81
2022/07/25 08:57:16;;;;;;;29.27;26.75;;;;;;;29.52;100.00;101009.19;4993817;28;20440;-81
2022/07/25 08:59:43;;;;;;;27.30;25.40;;;;;;;29.36;100.00;101019.84;4996133;28;20050;-81
2022/07/25 09:02:14;;;;;;;26.33;24.50;;;;;;;29.82;100.00;101018.28;4995466;28;20054;-80
2022/07/25 09:04:43;;;;;;;28.27;26.57;;;;;;;29.96;100.00;101015.31;4994406;28;20057;-80
2022/07/25 09:07:20;;;;;;;25.45;23.65;;;;;;;29.81;100.00;101003.00;4995541;28;20301;-78
2022/07/25 09:09:47;;;;;;;28.88;26.98;;;;;;;29.73;100.00;101010.09;4995632;28;20050;-80
2022/07/25 09:12:16;;;;;;;28.58;26.67;;;;;;;29.61;100.00;101002.56;4992765;28;20054;-80
2022/07/25 09:14:44;;;;;;;26.90;25.17;;;;;;;29.74;100.00;100999.94;4993890;28;20042;-82
2022/07/25 09:17:11;;;;;;;26.63;24.92;;;;;;;29.81;100.00;100997.53;4995195;28;20047;-80
2022/07/25 09:19:39;;;;;;;25.90;24.20;;;;;;;30.05;100.00;100991.44;4995071;28;20054;-82
2022/07/25 09:22:08;;;;;;;26.52;24.63;;;;;;;30.54;99.00;100984.34;4993452;28;20061;-82
2022/07/25 09:24:35;;;;;;;26.65;24.85;;;;;;;30.26;97.36;100992.31;4993523;28;20105;-82
2022/07/25 09:27:08;;;;;;;24.70;23.10;;;;;;;29.51;100.00;100988.44;4991305;28;20069;-82
2022/07/25 09:29:41;;;;;;;26.08;24.33;;;;;;;29.57;100.00;100984.38;4992298;28;20064;-81
2022/07/25 09:32:16;;;;;;;26.63;24.83;;;;;;;29.95;100.00;100992.59;4992584;28;20480;-82
2022/07/25 09:34:53;;;;;;;26.65;24.85;;;;;;;30.18;98.57;100987.66;4994202;28;20050;-82
2022/07/25 09:37:26;;;;;;;27.30;25.38;;;;;;;30.20;100.00;100990.03;4993094;28;20042;-83
2022/07/25 09:40:00;;;;;;;27.10;25.30;;;;;;;29.43;100.00;100985.38;4994253;28;20058;-82
2022/07/25 09:42:30;;;;;;;28.23;26.25;;;;;;;29.43;100.00;100981.84;4994380;28;20050;-83
2022/07/25 09:45:03;;;;;;;29.85;27.85;;;;;;;29.83;100.00;100976.88;4993738;28;20130;-82
2022/07/25 09:47:32;;;;;;;;;;;;;;;29.99;100.00;100985.34;4993894;28;20062;-82
2022/07/25 09:50:07;;;;;;;27.73;25.95;;;;;;;29.86;100.00;100980.91;4989974;28;19922;-81
2022/07/25 09:52:35;;;;;;;29.98;28.17;;;;;;;29.89;100.00;100981.03;4992490;28;20058;-82
2022/07/25 09:55:04;;;;;;;28.58;26.77;;;;;;;30.55;100.00;100977.72;4993672;28;20050;-82
2022/07/25 09:57:33;;;;;;;29.73;27.92;;;;;;;30.65;90.34;100976.50;4992935;28;20517;-81
2022/07/25 10:00:02;;;;;;;28.92;27.13;;;;;;;30.60;93.58;100973.19;4994441;28;20061;-81
2022/07/25 10:02:40;;;;;;;29.73;27.83;;;;;;;30.15;95.96;100971.88;4991651;28;20097;-83
2022/07/25 10:05:17;;;;;;;27.88;26.10;;;;;;;30.53;94.62;100966.31;4992397;28;20479;-82
2022/07/25 10:07:48;;;;;;;28.40;26.50;;;;;;;31.08;88.58;100964.38;4992843;28;20112;-82
2022/07/25 10:10:30;;;;;;;30.05;28.15;;;;;;;30.90;90.54;100971.97;4995018;28;20494;-82
2022/07/25 10:13:09;;;;;;;29.38;27.42;;;;;;;30.42;94.73;100962.38;4991990;28;20124;-81
2022/07/25 10:15:48;;;;;;;28.95;27.05;;;;;;;31.32;92.44;100966.38;4992886;28;20046;-81
2022/07/25 10:18:19;;;;;;;27.05;25.17;;;;;;;31.51;86.45;100959.56;4995076;28;20061;-79
2022/07/25 10:20:49;;;;;;;28.67;26.98;;;;;;;32.11;84.37;100958.75;4981918;28;20434;-81
2022/07/25 10:23:20;;;;;;;26.88;25.17;;;;;;;32.18;80.52;100955.44;4996679;28;20053;-82
2022/07/25 10:25:48;;;;;;;30.45;28.55;;;;;;;31.57;79.45;100955.47;4984511;28;20046;-81
2022/07/25 10:28:19;;;;;;;27.05;25.25;;;;;;;31.50;86.43;100942.31;4997036;28;20046;-82
2022/07/25 10:30:46;;;;;;;27.13;25.33;;;;;;;31.75;81.81;100945.84;4995562;28;20046;-82
2022/07/25 10:33:17;;;;;;;27.35;25.55;;;;;;;31.35;83.10;100945.69;4998892;28;20147;-82
2022/07/25 10:35:48;;;;;;;27.70;25.80;;;;;;;30.90;89.84;100952.78;5000563;28;20057;-81
2022/07/25 10:38:24;;;;;;;27.33;25.52;;;;;;;31.23;87.84;100939.03;5001469;28;20057;-81
2022/07/25 10:40:51;;;;;;;26.77;25.00;;;;;;;31.48;84.89;100936.34;4999659;28;20050;-80
2022/07/25 10:43:20;;;;;;;27.05;25.35;;;;;;;32.15;85.09;100934.94;4995134;28;20046;-81
2022/07/25 10:45:51;;;;;;;28.27;26.50;;;;;;;31.59;80.76;100931.19;4996991;28;20054;-81
2022/07/25 10:48:28;;;;;;;26.77;25.07;;;;;;;32.20;79.17;100927.63;4996626;28;20523;-80
2022/07/25 10:51:03;;;;;;;26.75;25.00;;;;;;;31.75;77.60;100932.13;4996908;28;20046;-81
2022/07/25 10:53:37;;;;;;;25.35;23.65;;;;;;;31.64;76.63;100920.00;4993794;28;20050;-82
2022/07/25 10:56:07;;;;;;;30.60;28.50;;;;;;;32.55;77.38;100920.41;4997131;28;20486;-81
2022/07/25 10:58:49;;;;;;;27.35;25.45;;;;;;;33.21;63.05;100915.50;4997151;28;20050;-82
2022/07/25 11:01:21;;;;;;;24.67;23.08;;;;;;;32.31;66.83;100921.25;4995959;28;20042;-81
2022/07/25 11:03:49;;;;;;;;;;;;;;;32.38;73.83;100917.94;4995230;28;20047;-82
2022/07/25 11:06:29;;;;;;;24.75;23.00;;;;;;;32.57;70.34;100914.56;4995418;28;19922;-83
2022/07/25 11:08:59;;;;;;;25.08;23.38;;;;;;;32.96;69.10;100921.13;4997091;28;20061;-85
2022/07/25 11:11:37;;;;;;;25.02;23.35;;;;;;;32.88;62.57;100911.06;4994838;28;20074;-81